createdAt,value
2022-12-09T00:01:06.122Z,62.62
2022-12-09T00:03:34.568Z,62.66
2022-12-09T00:06:08.529Z,62.59
2022-12-09T00:08:36.822Z,62.67
2022-12-09T00:11:05.077Z,62.90
2022-12-09T00:13:32.709Z,62.51
2022-12-09T00:16:00.348Z,62.92
2022-12-09T00:18:28.122Z,62.97
2022-12-09T00:20:55.644Z,63.06
2022-12-09T00:23:24.734Z,63.11
2022-12-09T00:25:52.476Z,63.25
2022-12-09T00:28:20.364Z,63.01
2022-12-09T00:30:48.004Z,63.10
2022-12-09T00:33:15.993Z,62.81
2022-12-09T00:35:43.650Z,62.67
2022-12-09T00:38:11.186Z,62.83
2022-12-09T00:40:40.057Z,63.07
2022-12-09T00:43:07.773Z,63.19
2022-12-09T00:45:35.360Z,63.32
2022-12-09T00:48:03.064Z,63.25
2022-12-09T00:50:30.605Z,62.83
2022-12-09T00:52:58.252Z,63.35
2022-12-09T00:55:26.053Z,63.33
2022-12-09T00:57:55.060Z,62.97
2022-12-09T01:00:22.627Z,63.18
2022-12-09T01:02:50.354Z,62.87
2022-12-09T01:05:18.574Z,62.86
2022-12-09T01:07:46.281Z,63.01
2022-12-09T01:10:14.048Z,63.15
2022-12-09T01:12:41.590Z,63.00
2022-12-09T01:15:11.707Z,63.13
2022-12-09T01:17:40.148Z,63.40
2022-12-09T01:20:10.316Z,63.08
2022-12-09T01:22:38.579Z,63.49
2022-12-09T01:25:07.150Z,63.21
2022-12-09T01:27:34.760Z,63.35
2022-12-09T01:30:02.374Z,63.50
2022-12-09T01:32:31.380Z,63.35
2022-12-09T01:34:58.927Z,63.26
2022-12-09T01:37:26.676Z,63.29
2022-12-09T01:39:54.370Z,63.42
2022-12-09T01:42:25.762Z,63.35
2022-12-09T01:45:44.937Z,63.30
2022-12-09T01:48:16.607Z,63.28
2022-12-09T01:50:50.232Z,63.44
2022-12-09T01:53:19.604Z,63.27
2022-12-09T01:55:47.565Z,63.30
2022-12-09T01:58:16.108Z,63.31
2022-12-09T02:00:45.188Z,63.34
2022-12-09T02:03:14.485Z,63.45
2022-12-09T02:05:42.853Z,63.58
2022-12-09T02:08:13.309Z,63.77
2022-12-09T02:10:46.964Z,63.99
2022-12-09T02:13:25.201Z,63.60
2022-12-09T02:15:55.922Z,64.05
2022-12-09T02:18:28.807Z,64.20
2022-12-09T02:20:59.315Z,64.18
2022-12-09T02:23:35.188Z,64.26
2022-12-09T02:26:14.480Z,63.94
2022-12-09T02:29:01.944Z,64.15
2022-12-09T02:31:45.404Z,64.33
2022-12-09T02:34:18.187Z,64.33
2022-12-09T02:36:57.885Z,64.47
2022-12-09T02:39:32.653Z,65.66
2022-12-09T02:42:04.492Z,66.65
2022-12-09T02:44:33.118Z,66.08
2022-12-09T02:47:01.714Z,66.44
2022-12-09T02:49:33.205Z,65.60
2022-12-09T02:52:02.365Z,66.47
2022-12-09T02:54:33.395Z,67.32
2022-12-09T02:57:06.380Z,66.27
2022-12-09T02:59:34.220Z,66.58
2022-12-09T03:02:13.093Z,65.87
2022-12-09T03:04:45.877Z,67.81
2022-12-09T03:07:26.855Z,69.45
2022-12-09T03:10:03.041Z,68.34
2022-12-09T03:12:33.110Z,67.62
2022-12-09T03:15:03.939Z,68.14
2022-12-09T03:17:34.400Z,67.13
2022-12-09T03:20:08.536Z,65.73
2022-12-09T03:22:38.180Z,65.79
2022-12-09T03:25:10.326Z,65.54
2022-12-09T03:27:41.794Z,65.44
2022-12-09T03:30:12.173Z,65.27
2022-12-09T03:32:42.130Z,65.05
2022-12-09T03:35:15.617Z,64.73
2022-12-09T03:37:45.850Z,64.71
2022-12-09T03:40:17.585Z,65.14
2022-12-09T03:42:50.505Z,65.80
2022-12-09T03:45:20.832Z,66.73
2022-12-09T03:47:48.495Z,66.90
2022-12-09T03:50:18.154Z,67.27
2022-12-09T03:52:50.097Z,68.27
2022-12-09T03:55:24.435Z,68.46
2022-12-09T03:57:55.916Z,68.43
2022-12-09T04:00:23.966Z,67.91
2022-12-09T04:02:51.822Z,67.69
2022-12-09T04:05:20.957Z,67.34
2022-12-09T04:07:48.699Z,67.90
2022-12-09T04:10:16.282Z,67.87
2022-12-09T04:12:43.967Z,69.04
2022-12-09T04:15:11.760Z,68.83
2022-12-09T04:17:39.417Z,67.25
2022-12-09T04:20:09.261Z,66.63
2022-12-09T04:22:38.456Z,66.00
2022-12-09T04:25:07.619Z,66.15
2022-12-09T04:27:35.224Z,66.72
2022-12-09T04:30:02.791Z,66.99
2022-12-09T04:32:31.312Z,67.57
2022-12-09T04:34:58.882Z,67.49
2022-12-09T04:37:26.736Z,66.54
2022-12-09T04:39:55.638Z,67.09
2022-12-09T04:42:23.194Z,67.22
2022-12-09T04:44:50.861Z,66.99
2022-12-09T04:47:18.872Z,67.55
2022-12-09T04:49:46.616Z,67.37
2022-12-09T04:52:14.260Z,68.54
2022-12-09T04:54:41.811Z,68.88
2022-12-09T04:57:12.354Z,68.03
2022-12-09T04:59:40.115Z,67.48
2022-12-09T05:02:07.903Z,68.43
2022-12-09T05:04:36.006Z,68.55
2022-12-09T05:07:03.978Z,68.48
2022-12-09T05:09:31.866Z,68.31
2022-12-09T05:11:59.422Z,68.61
2022-12-09T05:14:28.612Z,68.49
2022-12-09T05:16:56.464Z,69.00
2022-12-09T05:19:24.972Z,68.09
2022-12-09T05:21:52.981Z,68.98
2022-12-09T05:24:20.667Z,69.51
2022-12-09T05:26:48.503Z,69.20
2022-12-09T05:29:22.385Z,68.84
2022-12-09T05:31:52.527Z,70.02
2022-12-09T05:34:20.521Z,69.84
2022-12-09T05:36:48.641Z,70.35
2022-12-09T05:39:16.455Z,70.55
2022-12-09T05:41:44.553Z,70.50
2022-12-09T05:44:12.878Z,70.34
2022-12-09T05:46:40.548Z,68.86
2022-12-09T05:49:10.301Z,68.71
2022-12-09T05:51:38.458Z,68.83
2022-12-09T05:54:07.382Z,69.89
2022-12-09T05:56:35.452Z,70.04
2022-12-09T05:59:03.202Z,69.48
2022-12-09T06:01:31.304Z,70.06
2022-12-09T06:03:59.168Z,70.39
2022-12-09T06:06:30.213Z,70.32
2022-12-09T06:09:00.857Z,68.86
2022-12-09T06:11:30.207Z,70.38
2022-12-09T06:13:58.329Z,70.28
2022-12-09T06:16:26.724Z,69.75
2022-12-09T06:18:55.143Z,69.31
2022-12-09T06:21:23.637Z,70.08
2022-12-09T06:23:53.660Z,69.91
2022-12-09T06:26:23.998Z,69.88
2022-12-09T06:28:52.889Z,70.08
2022-12-09T06:31:21.300Z,70.13
2022-12-09T06:33:58.481Z,68.92
2022-12-09T06:36:28.060Z,68.38
2022-12-09T06:39:01.786Z,68.97
2022-12-09T06:41:33.940Z,68.87
2022-12-09T06:44:02.021Z,68.75
2022-12-09T06:46:29.833Z,69.01
2022-12-09T06:48:57.885Z,69.01
2022-12-09T06:51:26.106Z,68.58
2022-12-09T06:53:54.615Z,68.81
2022-12-09T06:56:24.722Z,69.67
2022-12-09T06:58:52.882Z,70.06
2022-12-09T07:01:23.099Z,70.29
2022-12-09T07:03:52.714Z,69.98
2022-12-09T07:06:27.070Z,69.23
2022-12-09T07:08:55.828Z,68.42
2022-12-09T07:11:25.174Z,67.59
2022-12-09T07:13:53.517Z,68.20
2022-12-09T07:16:21.931Z,68.69
2022-12-09T07:18:49.904Z,69.03
2022-12-09T07:21:20.904Z,68.99
2022-12-09T07:23:49.379Z,69.58
2022-12-09T07:26:18.383Z,69.72
2022-12-09T07:28:50.188Z,69.47
2022-12-09T07:31:20.230Z,69.21
2022-12-09T07:33:48.553Z,68.30
2022-12-09T07:36:21.028Z,67.75
2022-12-09T07:38:49.656Z,67.41
2022-12-09T07:41:19.313Z,67.45
2022-12-09T07:43:49.688Z,67.52
2022-12-09T07:46:19.431Z,67.30
2022-12-09T07:48:48.474Z,67.93
2022-12-09T07:51:17.223Z,67.53
2022-12-09T07:53:45.334Z,68.17
2022-12-09T07:56:15.671Z,68.80
2022-12-09T07:58:44.748Z,68.56
2022-12-09T08:01:16.703Z,67.90
2022-12-09T08:03:45.505Z,67.97
2022-12-09T08:06:15.128Z,67.71
2022-12-09T08:08:43.139Z,67.67
2022-12-09T08:11:12.957Z,67.81
2022-12-09T08:13:42.261Z,67.85
2022-12-09T08:16:14.218Z,67.91
2022-12-09T08:18:43.195Z,68.55
2022-12-09T08:21:13.395Z,69.25
2022-12-09T08:23:41.316Z,69.54
2022-12-09T08:26:10.585Z,69.82
2022-12-09T08:28:38.753Z,68.95
2022-12-09T08:31:10.709Z,68.66
2022-12-09T08:33:40.762Z,69.02
2022-12-09T08:36:13.051Z,70.19
2022-12-09T08:38:41.362Z,69.73
2022-12-09T08:41:10.644Z,69.69
2022-12-09T08:43:39.394Z,69.51
2022-12-09T08:46:07.135Z,69.19
2022-12-09T08:48:37.152Z,70.27
2022-12-09T08:51:07.368Z,70.46
2022-12-09T08:53:35.117Z,70.31
2022-12-09T08:56:10.304Z,70.83
2022-12-09T08:58:38.279Z,70.69
2022-12-09T09:01:06.718Z,70.40
2022-12-09T09:03:35.402Z,70.62
2022-12-09T09:06:09.672Z,70.42
2022-12-09T09:08:40.329Z,71.12
2022-12-09T09:11:12.275Z,70.61
2022-12-09T09:13:41.499Z,70.79
2022-12-09T09:16:11.395Z,70.65
2022-12-09T09:18:39.622Z,70.12
2022-12-09T09:21:09.081Z,70.03
2022-12-09T09:23:37.520Z,70.57
2022-12-09T09:26:10.285Z,70.01
2022-12-09T09:28:37.949Z,69.99
2022-12-09T09:31:07.902Z,69.47
2022-12-09T09:33:36.362Z,69.63
2022-12-09T09:36:10.153Z,69.65
2022-12-09T09:38:38.745Z,69.49
2022-12-09T09:41:21.691Z,69.34
2022-12-09T09:43:49.900Z,69.14
2022-12-09T09:46:30.183Z,69.37
2022-12-09T09:48:59.914Z,69.57
2022-12-09T09:51:28.613Z,69.52
2022-12-09T09:53:56.449Z,69.46
2022-12-09T09:56:35.535Z,69.58
2022-12-09T09:59:19.406Z,69.31
2022-12-09T10:01:54.495Z,69.66
2022-12-09T10:04:29.725Z,69.16
2022-12-09T10:07:08.755Z,70.71
2022-12-09T10:09:42.821Z,70.34
2022-12-09T10:12:21.314Z,70.17
2022-12-09T10:14:57.901Z,70.05
2022-12-09T10:17:29.634Z,70.90
2022-12-09T10:20:03.640Z,70.58
2022-12-09T10:22:38.472Z,70.48
2022-12-09T10:25:17.837Z,70.35
2022-12-09T10:27:53.298Z,70.11
2022-12-09T10:30:21.755Z,69.88
2022-12-09T10:32:50.395Z,69.79
2022-12-09T10:35:20.833Z,69.68
2022-12-09T10:37:49.876Z,69.63
2022-12-09T10:40:23.979Z,69.32
2022-12-09T10:43:15.462Z,69.13
2022-12-09T10:46:15.712Z,69.20
2022-12-09T10:48:34.618Z,69.17
2022-12-09T10:51:07.043Z,69.35
2022-12-09T10:53:36.134Z,69.21
2022-12-09T10:56:05.115Z,69.39
2022-12-09T10:58:34.093Z,68.88
2022-12-09T11:01:05.283Z,68.78
2022-12-09T11:03:36.278Z,69.02
2022-12-09T11:06:16.477Z,69.14
2022-12-09T11:08:52.477Z,68.73
2022-12-09T11:11:20.753Z,69.54
2022-12-09T11:13:49.999Z,69.22
2022-12-09T11:16:18.105Z,69.13
2022-12-09T11:18:48.147Z,69.43
2022-12-09T11:21:33.456Z,69.26
2022-12-09T11:24:03.412Z,69.32
2022-12-09T11:26:38.460Z,69.00
2022-12-09T11:29:15.694Z,69.22
2022-12-09T11:31:44.632Z,69.11
2022-12-09T11:34:19.821Z,69.12
2022-12-09T11:36:50.766Z,68.85
2022-12-09T11:39:26.235Z,68.99
2022-12-09T11:42:17.654Z,69.43
2022-12-09T11:44:56.477Z,69.13
2022-12-09T11:47:36.482Z,69.26
2022-12-09T11:50:18.824Z,69.63
2022-12-09T11:52:47.082Z,69.94
2022-12-09T11:55:20.369Z,69.70
2022-12-09T11:57:52.275Z,69.59
2022-12-09T12:00:25.627Z,70.00
2022-12-09T12:03:00.449Z,68.90
2022-12-09T12:05:33.988Z,69.15
2022-12-09T12:08:14.993Z,69.12
2022-12-09T12:10:45.732Z,69.15
2022-12-09T12:13:21.262Z,69.09
2022-12-09T12:15:57.133Z,69.41
2022-12-09T12:18:27.089Z,69.01
2022-12-09T12:21:19.579Z,68.81
2022-12-09T12:24:12.777Z,69.07
2022-12-09T12:26:42.216Z,68.93
2022-12-09T12:29:28.951Z,68.70
2022-12-09T12:32:28.764Z,68.87
2022-12-09T12:35:13.455Z,68.67
2022-12-09T12:37:54.696Z,69.36
2022-12-09T12:40:33.304Z,69.20
2022-12-09T12:43:29.408Z,69.60
2022-12-09T12:46:18.980Z,69.96
2022-12-09T12:49:00.036Z,69.71
2022-12-09T12:51:37.528Z,69.85
2022-12-09T12:54:16.345Z,69.20
2022-12-09T12:56:52.363Z,69.54
2022-12-09T12:59:28.088Z,69.70
2022-12-09T13:02:01.289Z,69.58
2022-12-09T13:04:40.231Z,68.96
2022-12-09T13:07:13.062Z,69.24
2022-12-09T13:09:43.552Z,69.29
2022-12-09T13:12:16.616Z,69.22
2022-12-09T13:14:53.428Z,69.42
2022-12-09T13:17:24.129Z,69.14
2022-12-09T13:19:55.529Z,69.15
2022-12-09T13:22:27.719Z,69.37
2022-12-09T13:25:02.561Z,69.61
2022-12-09T13:27:38.395Z,69.49
2022-12-09T13:30:12.175Z,69.34
2022-12-09T13:32:59.400Z,69.39
2022-12-09T13:35:36.544Z,69.28
2022-12-09T13:38:04.529Z,69.41
2022-12-09T13:40:36.604Z,69.58
2022-12-09T13:43:12.927Z,69.24
2022-12-09T13:45:50.120Z,69.67
2022-12-09T13:48:43.410Z,70.46
2022-12-09T13:51:12.409Z,69.87
2022-12-09T13:53:46.369Z,69.25
2022-12-09T13:56:28.833Z,69.78
2022-12-09T13:59:17.732Z,69.62
2022-12-09T14:01:49.891Z,69.38
2022-12-09T14:04:22.181Z,69.34
2022-12-09T14:06:57.403Z,69.62
2022-12-09T14:09:36.659Z,69.61
2022-12-09T14:12:06.379Z,69.97
2022-12-09T14:14:58.739Z,70.21
2022-12-09T14:18:01.309Z,70.17
2022-12-09T14:20:37.846Z,69.91
2022-12-09T14:23:19.223Z,70.83
2022-12-09T14:26:05.819Z,70.88
2022-12-09T14:28:56.219Z,70.79
2022-12-09T14:31:57.842Z,70.97
2022-12-09T14:34:33.255Z,71.26
2022-12-09T14:37:21.408Z,71.38
2022-12-09T14:39:56.993Z,71.10
2022-12-09T14:42:34.272Z,71.09
2022-12-09T14:45:15.484Z,71.82
2022-12-09T14:47:46.355Z,71.19
2022-12-09T14:50:17.228Z,70.96
2022-12-09T14:52:53.876Z,70.98
2022-12-09T14:55:26.265Z,71.04
2022-12-09T14:57:55.672Z,71.05
2022-12-09T15:00:30.307Z,71.02
2022-12-09T15:03:30.624Z,71.19
2022-12-09T15:05:55.753Z,71.31
2022-12-09T15:08:34.376Z,70.90
2022-12-09T15:11:09.361Z,71.17
2022-12-09T15:13:37.710Z,71.37
2022-12-09T15:16:09.186Z,71.52
2022-12-09T15:18:39.811Z,71.79
2022-12-09T15:21:08.117Z,71.58
2022-12-09T15:23:38.913Z,71.69
2022-12-09T15:26:10.688Z,71.63
2022-12-09T15:28:38.616Z,71.71
2022-12-09T15:31:08.066Z,72.45
2022-12-09T15:33:41.525Z,72.62
2022-12-09T15:36:12.563Z,72.39
2022-12-09T15:38:45.943Z,71.92
2022-12-09T15:41:34.946Z,73.01
2022-12-09T15:44:07.459Z,73.13
2022-12-09T15:46:37.633Z,72.64
2022-12-09T15:49:08.382Z,72.22
2022-12-09T15:51:38.106Z,72.61
2022-12-09T15:54:12.035Z,72.39
2022-12-09T15:56:46.855Z,72.55
2022-12-09T15:59:20.352Z,72.09
2022-12-09T16:01:50.398Z,71.97
2022-12-09T16:04:20.898Z,72.51
2022-12-09T16:06:50.118Z,72.20
2022-12-09T16:09:20.896Z,72.38
2022-12-09T16:11:54.481Z,72.42
2022-12-09T16:14:24.439Z,72.72
2022-12-09T16:16:56.286Z,72.50
2022-12-09T16:19:33.602Z,72.25
2022-12-09T16:22:04.469Z,72.23
2022-12-09T16:25:05.660Z,72.22
2022-12-09T16:27:25.480Z,72.34
2022-12-09T16:29:55.207Z,72.39
2022-12-09T16:32:28.183Z,72.27
2022-12-09T16:34:57.947Z,72.39
2022-12-09T16:37:35.807Z,72.18
2022-12-09T16:40:35.193Z,72.78
2022-12-09T16:43:23.467Z,72.84
2022-12-09T16:45:52.457Z,72.42
2022-12-09T16:48:21.837Z,72.69
2022-12-09T16:50:51.641Z,72.71
2022-12-09T16:53:21.409Z,72.89
2022-12-09T16:55:53.245Z,72.82
2022-12-09T16:58:22.863Z,72.55
2022-12-09T17:00:51.043Z,72.78
2022-12-09T17:03:32.651Z,73.13
2022-12-09T17:06:00.373Z,72.54
2022-12-09T17:08:27.963Z,71.87
2022-12-09T17:10:55.550Z,71.81
2022-12-09T17:13:24.446Z,71.56
2022-12-09T17:15:52.935Z,71.74
2022-12-09T17:18:20.530Z,71.97
2022-12-09T17:20:48.052Z,72.12
2022-12-09T17:23:15.555Z,71.76
2022-12-09T17:25:43.069Z,71.61
2022-12-09T17:28:11.628Z,71.75
2022-12-09T17:30:40.464Z,71.05
2022-12-09T17:33:07.970Z,70.86
2022-12-09T17:35:38.774Z,70.38
2022-12-09T17:38:06.312Z,70.34
2022-12-09T17:40:35.521Z,69.68
2022-12-09T17:43:03.409Z,69.50
2022-12-09T17:45:30.928Z,69.57
2022-12-09T17:48:00.106Z,69.50
2022-12-09T17:50:27.629Z,69.64
2022-12-09T17:52:55.155Z,69.65
2022-12-09T17:55:23.116Z,69.84
2022-12-09T17:57:54.124Z,69.58
2022-12-09T18:00:22.166Z,69.49
2022-12-09T18:02:49.730Z,69.54
2022-12-09T18:05:18.744Z,69.57
2022-12-09T18:07:46.351Z,69.63
2022-12-09T18:10:13.923Z,69.18
2022-12-09T18:12:41.507Z,69.52
2022-12-09T18:15:09.578Z,69.74
2022-12-09T18:17:37.061Z,69.69
2022-12-09T18:20:05.689Z,69.40
2022-12-09T18:22:34.841Z,69.60
2022-12-09T18:25:02.472Z,69.25
2022-12-09T18:27:30.785Z,69.08
2022-12-09T18:29:58.305Z,69.33
2022-12-09T18:32:25.900Z,69.64
2022-12-09T18:34:53.472Z,69.18
2022-12-09T18:37:21.304Z,69.24
2022-12-09T18:39:50.128Z,69.17
2022-12-09T18:42:17.616Z,69.79
2022-12-09T18:44:45.333Z,70.56
2022-12-09T18:47:12.855Z,69.81
2022-12-09T18:49:40.391Z,69.08
2022-12-09T18:52:07.951Z,68.58
2022-12-09T18:54:36.522Z,68.36
2022-12-09T18:57:05.545Z,68.54
2022-12-09T18:59:33.411Z,69.13
2022-12-09T19:02:00.950Z,69.95
2022-12-09T19:04:29.972Z,70.05
2022-12-09T19:06:59.911Z,69.57
2022-12-09T19:09:31.721Z,69.06
2022-12-09T19:12:11.308Z,68.35
2022-12-09T19:14:48.220Z,68.32
2022-12-09T19:17:15.763Z,69.09
2022-12-09T19:19:45.176Z,69.04
2022-12-09T19:22:12.719Z,69.24
2022-12-09T19:24:43.181Z,70.02
2022-12-09T19:27:11.252Z,69.89
2022-12-09T19:29:39.422Z,69.57
2022-12-09T19:32:29.397Z,68.65
2022-12-09T19:34:55.974Z,68.90
2022-12-09T19:37:23.579Z,68.77
2022-12-09T19:39:51.080Z,69.16
2022-12-09T19:42:19.187Z,69.27
2022-12-09T19:45:06.491Z,69.08
2022-12-09T19:47:36.865Z,68.99
2022-12-09T19:50:05.348Z,68.94
2022-12-09T19:52:33.101Z,69.01
2022-12-09T19:55:00.652Z,69.02
2022-12-09T19:57:28.137Z,69.08
2022-12-09T19:59:55.671Z,68.75
2022-12-09T20:02:23.408Z,68.22
2022-12-09T20:04:52.558Z,68.51
2022-12-09T20:07:20.536Z,69.10
2022-12-09T20:09:48.138Z,68.76
2022-12-09T20:12:15.759Z,68.77
2022-12-09T20:14:43.893Z,69.31
2022-12-09T20:17:11.618Z,68.91
2022-12-09T20:19:39.153Z,68.57
2022-12-09T20:22:08.001Z,69.75
2022-12-09T20:24:35.750Z,70.09
2022-12-09T20:27:03.291Z,70.13
2022-12-09T20:29:36.914Z,70.73
2022-12-09T20:32:05.370Z,70.73
2022-12-09T20:34:32.940Z,70.58
2022-12-09T20:37:00.741Z,71.09
2022-12-09T20:39:29.616Z,70.49
2022-12-09T20:41:57.170Z,70.28
2022-12-09T20:44:25.152Z,70.93
2022-12-09T20:46:54.129Z,71.15
2022-12-09T20:49:26.607Z,71.44
2022-12-09T20:51:55.408Z,70.50
2022-12-09T20:54:23.411Z,69.85
2022-12-09T20:56:52.988Z,70.13
2022-12-09T20:59:20.556Z,70.73
2022-12-09T21:01:48.090Z,71.12
2022-12-09T21:04:16.349Z,71.16
2022-12-09T21:06:43.931Z,71.26
2022-12-09T21:09:17.345Z,70.57
2022-12-09T21:11:45.550Z,71.14
2022-12-09T21:14:14.531Z,71.47
2022-12-09T21:16:43.798Z,71.89
2022-12-09T21:19:14.222Z,71.65
2022-12-09T21:21:43.348Z,70.79
2022-12-09T21:24:12.076Z,71.06
2022-12-09T21:26:40.018Z,71.29
2022-12-09T21:29:08.633Z,71.63
2022-12-09T21:31:40.799Z,70.91
2022-12-09T21:34:10.023Z,70.85
2022-12-09T21:36:41.132Z,71.13
2022-12-09T21:39:09.600Z,71.22
2022-12-09T21:41:37.825Z,70.42
2022-12-09T21:44:07.829Z,70.33
2022-12-09T21:46:37.967Z,70.67
2022-12-09T21:49:07.109Z,71.04
2022-12-09T21:51:35.456Z,70.75
2022-12-09T21:54:03.340Z,70.98
2022-12-09T21:56:32.728Z,71.04
2022-12-09T21:59:01.182Z,70.87
2022-12-09T22:01:30.953Z,71.46
2022-12-09T22:04:01.336Z,71.68
2022-12-09T22:06:29.361Z,71.30
2022-12-09T22:08:58.472Z,71.88
2022-12-09T22:11:28.081Z,71.88
2022-12-09T22:13:57.494Z,71.22
2022-12-09T22:16:26.962Z,71.21
2022-12-09T22:18:56.555Z,71.55
2022-12-09T22:21:29.291Z,71.42
2022-12-09T22:23:59.940Z,71.05
2022-12-09T22:26:27.936Z,71.75
2022-12-09T22:28:56.818Z,71.47
2022-12-09T22:31:27.116Z,71.65
2022-12-09T22:33:59.263Z,71.25
2022-12-09T22:36:28.809Z,71.56
2022-12-09T22:38:56.637Z,71.35
2022-12-09T22:41:27.097Z,71.29
2022-12-09T22:43:55.385Z,71.56
2022-12-09T22:46:24.699Z,71.46
2022-12-09T22:48:52.966Z,72.33
2022-12-09T22:51:22.709Z,71.72
2022-12-09T22:53:53.878Z,71.16
2022-12-09T22:56:22.044Z,71.08
2022-12-09T22:58:50.168Z,71.01
2022-12-09T23:01:19.842Z,70.92
2022-12-09T23:03:47.875Z,70.50
2022-12-09T23:06:15.965Z,70.64
2022-12-09T23:08:44.684Z,70.62
2022-12-09T23:11:15.875Z,70.95
2022-12-09T23:13:44.108Z,71.30
2022-12-09T23:16:14.706Z,71.42
2022-12-09T23:18:42.660Z,71.90
2022-12-09T23:21:11.942Z,72.59
2022-12-09T23:23:39.890Z,72.63
2022-12-09T23:26:11.631Z,72.43
2022-12-09T23:28:41.867Z,71.55
2022-12-09T23:31:11.528Z,71.66
2022-12-09T23:33:41.020Z,72.33
2022-12-09T23:36:11.344Z,72.14
2022-12-09T23:38:39.200Z,72.00
2022-12-09T23:41:07.240Z,72.25
2022-12-09T23:43:36.220Z,72.20
2022-12-09T23:46:14.447Z,72.90
2022-12-09T23:48:43.671Z,72.94
2022-12-09T23:51:12.466Z,72.70
2022-12-09T23:53:40.785Z,72.32
2022-12-09T23:56:11.106Z,72.10
2022-12-09T23:58:38.815Z,72.45
